createdAt,value
2019-05-17T00:00:03.960Z,1008.75
2019-05-17T00:01:03.944Z,1008.68
2019-05-17T00:02:03.940Z,1008.69
2019-05-17T00:03:06.615Z,1008.67
2019-05-17T00:04:03.915Z,1008.68
2019-05-17T00:05:03.906Z,1008.68
2019-05-17T00:06:06.477Z,1008.66
2019-05-17T00:07:06.324Z,1008.72
2019-05-17T00:08:03.872Z,1008.77
2019-05-17T00:09:03.866Z,1008.73
2019-05-17T00:10:03.857Z,1008.68
2019-05-17T00:11:03.841Z,1008.66
2019-05-17T00:12:03.825Z,1008.64
2019-05-17T00:13:03.817Z,1008.63
2019-05-17T00:14:06.167Z,1008.61
2019-05-17T00:15:03.795Z,1008.60
2019-05-17T00:16:03.785Z,1008.60
2019-05-17T00:17:03.773Z,1008.63
2019-05-17T00:18:03.759Z,1008.60
2019-05-17T00:19:03.752Z,1008.60
2019-05-17T00:20:03.739Z,1008.57
2019-05-17T00:21:03.728Z,1008.56
2019-05-17T00:22:03.713Z,1008.52
2019-05-17T00:23:03.702Z,1008.46
2019-05-17T00:24:03.689Z,1008.49
2019-05-17T00:25:03.691Z,1008.43
2019-05-17T00:26:03.669Z,1008.43
2019-05-17T00:27:03.674Z,1008.45
2019-05-17T00:28:03.646Z,1008.40
2019-05-17T00:29:03.639Z,1008.43
2019-05-17T00:30:03.629Z,1008.42
2019-05-17T00:31:03.615Z,1008.45
2019-05-17T00:32:03.630Z,1008.37
2019-05-17T00:33:03.599Z,1008.43
2019-05-17T00:34:03.586Z,1008.41
2019-05-17T00:35:03.566Z,1008.41
2019-05-17T00:36:03.561Z,1008.38
2019-05-17T00:37:03.546Z,1008.39
2019-05-17T00:38:03.534Z,1008.36
2019-05-17T00:39:03.525Z,1008.35
2019-05-17T00:40:03.512Z,1008.37
2019-05-17T00:41:03.498Z,1008.38
2019-05-17T00:42:03.493Z,1008.31
2019-05-17T00:43:03.487Z,1008.29
2019-05-17T00:44:03.470Z,1008.25
2019-05-17T00:45:03.458Z,1008.30
2019-05-17T00:46:03.452Z,1008.24
2019-05-17T00:47:03.438Z,1008.21
2019-05-17T00:48:03.432Z,1008.20
2019-05-17T00:49:03.410Z,1008.21
2019-05-17T00:50:03.414Z,1008.21
2019-05-17T00:51:03.403Z,1008.20
2019-05-17T00:52:03.382Z,1008.20
2019-05-17T00:53:03.371Z,1008.25
2019-05-17T00:54:03.359Z,1008.23
2019-05-17T00:55:03.358Z,1008.23
2019-05-17T00:56:03.332Z,1008.31
2019-05-17T00:57:03.322Z,1008.25
2019-05-17T00:58:03.310Z,1008.31
2019-05-17T00:59:03.302Z,1008.26
2019-05-17T01:00:03.292Z,1008.26
2019-05-17T01:01:03.313Z,1008.23
2019-05-17T01:02:03.269Z,1008.20
2019-05-17T01:03:03.260Z,1008.23
2019-05-17T01:04:03.249Z,1008.22
2019-05-17T01:05:03.242Z,1008.16
2019-05-17T01:06:03.225Z,1008.22
2019-05-17T01:07:03.212Z,1008.22
2019-05-17T01:08:03.205Z,1008.20
2019-05-17T01:09:04.164Z,1008.27
2019-05-17T01:10:03.177Z,1008.23
2019-05-17T01:11:03.165Z,1008.24
2019-05-17T01:12:03.157Z,1008.26
2019-05-17T01:13:03.141Z,1008.20
2019-05-17T01:14:03.131Z,1008.27
2019-05-17T01:15:03.120Z,1008.22
2019-05-17T01:16:03.115Z,1008.22
2019-05-17T01:17:03.103Z,1008.20
2019-05-17T01:18:03.113Z,1008.18
2019-05-17T01:19:03.084Z,1008.24
2019-05-17T01:20:03.062Z,1008.21
2019-05-17T01:21:03.058Z,1008.25
2019-05-17T01:22:03.044Z,1008.22
2019-05-17T01:23:03.045Z,1008.26
2019-05-17T01:24:03.017Z,1008.24
2019-05-17T01:25:03.014Z,1008.22
2019-05-17T01:26:02.999Z,1008.23
2019-05-17T01:27:02.989Z,1008.27
2019-05-17T01:28:02.991Z,1008.24
2019-05-17T01:29:02.972Z,1008.27
2019-05-17T01:30:02.950Z,1008.27
2019-05-17T01:31:02.943Z,1008.24
2019-05-17T01:32:02.929Z,1008.26
2019-05-17T01:33:02.923Z,1008.29
2019-05-17T01:34:02.922Z,1008.31
2019-05-17T01:35:02.897Z,1008.30
2019-05-17T01:36:02.885Z,1008.34
2019-05-17T01:37:02.875Z,1008.28
2019-05-17T01:38:02.875Z,1008.36
2019-05-17T01:39:14.293Z,1008.31
2019-05-17T01:40:03.849Z,1008.28
2019-05-17T01:41:02.833Z,1008.28
2019-05-17T01:42:02.821Z,1008.28
2019-05-17T01:43:02.812Z,1008.28
2019-05-17T01:44:02.795Z,1008.26
2019-05-17T01:45:02.800Z,1008.26
2019-05-17T01:46:02.775Z,1008.24
2019-05-17T01:47:02.776Z,1008.21
2019-05-17T01:48:02.753Z,1008.21
2019-05-17T01:49:02.738Z,1008.20
2019-05-17T01:50:02.733Z,1008.20
2019-05-17T01:51:02.716Z,1008.14
2019-05-17T01:52:02.709Z,1008.17
2019-05-17T01:53:02.709Z,1008.02
2019-05-17T01:54:02.681Z,1008.13
2019-05-17T01:55:02.686Z,1008.07
2019-05-17T01:56:02.658Z,1008.05
2019-05-17T01:57:02.652Z,1008.11
2019-05-17T01:58:02.643Z,1008.09
2019-05-17T01:59:02.626Z,1008.18
2019-05-17T02:00:02.622Z,1008.18
2019-05-17T02:01:02.611Z,1008.19
2019-05-17T02:02:02.595Z,1008.08
2019-05-17T02:03:02.631Z,1008.13
2019-05-17T02:04:02.575Z,1008.09
2019-05-17T02:05:02.572Z,1008.10
2019-05-17T02:06:02.548Z,1008.10
2019-05-17T02:07:02.547Z,1008.05
2019-05-17T02:08:02.534Z,1008.05
2019-05-17T02:09:02.518Z,1008.01
2019-05-17T02:10:02.527Z,1008.08
2019-05-17T02:11:02.502Z,1008.01
2019-05-17T02:12:02.480Z,1008.04
2019-05-17T02:13:02.472Z,1008.02
2019-05-17T02:14:02.478Z,1008.02
2019-05-17T02:15:02.660Z,1008.00
2019-05-17T02:16:02.437Z,1008.03
2019-05-17T02:17:02.441Z,1008.01
2019-05-17T02:18:02.417Z,1007.95
2019-05-17T02:19:02.408Z,1008.00
2019-05-17T02:20:02.394Z,1007.95
2019-05-17T02:21:02.382Z,1008.00
2019-05-17T02:22:02.380Z,1007.97
2019-05-17T02:23:02.362Z,1007.96
2019-05-17T02:24:02.354Z,1008.01
2019-05-17T02:25:02.365Z,1007.99
2019-05-17T02:26:02.329Z,1008.05
2019-05-17T02:27:02.321Z,1007.99
2019-05-17T02:28:02.320Z,1008.02
2019-05-17T02:29:02.295Z,1007.98
2019-05-17T02:30:02.933Z,1008.01
2019-05-17T02:31:03.444Z,1008.00
2019-05-17T02:32:03.771Z,1008.00
2019-05-17T02:33:03.704Z,1008.02
2019-05-17T02:34:03.037Z,1008.01
2019-05-17T02:35:03.335Z,1008.03
2019-05-17T02:36:02.995Z,1008.02
2019-05-17T02:37:03.002Z,1008.04
2019-05-17T02:38:03.064Z,1008.02
2019-05-17T02:39:03.599Z,1008.08
2019-05-17T02:40:07.669Z,1008.10
2019-05-17T02:41:03.633Z,1008.14
2019-05-17T02:42:02.896Z,1008.13
2019-05-17T02:43:03.171Z,1008.10
2019-05-17T02:44:02.458Z,1008.09
2019-05-17T02:45:03.178Z,1008.04
2019-05-17T02:46:03.762Z,1008.05
2019-05-17T02:47:03.196Z,1007.96
2019-05-17T02:48:03.673Z,1008.05
2019-05-17T02:49:03.086Z,1008.02
2019-05-17T02:50:05.674Z,1008.00
2019-05-17T02:51:03.502Z,1007.93
2019-05-17T02:52:03.171Z,1008.06
2019-05-17T02:53:04.442Z,1008.09
2019-05-17T02:54:04.209Z,1008.04
2019-05-17T02:55:03.912Z,1007.96
2019-05-17T02:56:03.197Z,1008.03
2019-05-17T02:57:03.072Z,1008.03
2019-05-17T02:58:03.146Z,1008.00
2019-05-17T02:59:03.602Z,1008.03
2019-05-17T03:00:04.532Z,1007.99
2019-05-17T03:01:03.646Z,1007.96
2019-05-17T03:02:03.473Z,1007.95
2019-05-17T03:03:03.481Z,1008.01
2019-05-17T03:04:03.981Z,1008.04
2019-05-17T03:05:03.953Z,1008.01
2019-05-17T03:06:03.168Z,1008.01
2019-05-17T03:07:03.754Z,1008.04
2019-05-17T03:08:04.119Z,1007.99
2019-05-17T03:09:03.500Z,1008.02
2019-05-17T03:10:17.069Z,1008.04
2019-05-17T03:11:03.485Z,1008.02
2019-05-17T03:12:03.296Z,1008.04
2019-05-17T03:13:04.144Z,1007.99
2019-05-17T03:14:04.059Z,1008.04
2019-05-17T03:15:04.190Z,1008.04
2019-05-17T03:16:03.435Z,1008.04
2019-05-17T03:17:03.301Z,1008.05
2019-05-17T03:18:03.660Z,1008.04
2019-05-17T03:19:04.272Z,1008.07
2019-05-17T03:20:03.911Z,1008.07
2019-05-17T03:21:03.816Z,1008.10
2019-05-17T03:22:07.236Z,1008.07
2019-05-17T03:23:03.769Z,1008.11
2019-05-17T03:24:03.210Z,1008.07
2019-05-17T03:25:03.246Z,1008.10
2019-05-17T03:26:03.668Z,1008.07
2019-05-17T03:27:03.020Z,1008.02
2019-05-17T03:28:03.000Z,1008.05
2019-05-17T03:29:03.354Z,1008.04
2019-05-17T03:30:04.048Z,1008.06
2019-05-17T03:31:07.778Z,1007.99
2019-05-17T03:32:08.749Z,1008.02
2019-05-17T03:33:07.400Z,1008.06
2019-05-17T03:34:06.550Z,1007.98
2019-05-17T03:35:06.720Z,1008.04
2019-05-17T03:36:06.592Z,1008.05
2019-05-17T03:37:06.379Z,1008.03
2019-05-17T03:38:03.656Z,1008.11
2019-05-17T03:39:03.061Z,1008.03
2019-05-17T03:40:04.764Z,1008.08
2019-05-17T03:41:13.943Z,1008.09
2019-05-17T03:42:02.829Z,1008.06
2019-05-17T03:43:02.854Z,1008.10
2019-05-17T03:44:03.246Z,1008.05
2019-05-17T03:45:03.073Z,1008.10
2019-05-17T03:46:02.716Z,1008.06
2019-05-17T03:47:02.395Z,1008.07
2019-05-17T03:48:04.642Z,1008.07
2019-05-17T03:49:03.878Z,1008.03
2019-05-17T03:50:03.195Z,1007.99
2019-05-17T03:51:02.630Z,1008.09
2019-05-17T03:52:02.813Z,1008.00
2019-05-17T03:53:02.403Z,1008.06
2019-05-17T03:54:02.335Z,1008.05
2019-05-17T03:55:03.870Z,1008.05
2019-05-17T03:56:02.984Z,1008.03
2019-05-17T03:57:02.899Z,1008.03
2019-05-17T03:58:03.392Z,1007.94
2019-05-17T03:59:03.844Z,1008.01
2019-05-17T04:00:03.825Z,1008.01
2019-05-17T04:01:04.085Z,1008.04
2019-05-17T04:02:03.282Z,1008.00
2019-05-17T04:03:02.952Z,1008.04
2019-05-17T04:04:02.894Z,1007.99
2019-05-17T04:05:04.394Z,1007.97
2019-05-17T04:06:03.907Z,1008.03
2019-05-17T04:07:03.469Z,1008.05
2019-05-17T04:08:03.512Z,1008.05
2019-05-17T04:09:03.604Z,1008.04
2019-05-17T04:10:04.433Z,1008.00
2019-05-17T04:11:17.656Z,1008.04
2019-05-17T04:12:02.943Z,1008.08
2019-05-17T04:13:04.210Z,1007.97
2019-05-17T04:14:02.978Z,1008.00
2019-05-17T04:15:03.158Z,1007.97
2019-05-17T04:16:05.671Z,1007.97
2019-05-17T04:17:03.006Z,1007.97
2019-05-17T04:18:04.163Z,1007.94
2019-05-17T04:19:03.173Z,1007.96
2019-05-17T04:20:03.596Z,1007.95
2019-05-17T04:21:03.456Z,1007.94
2019-05-17T04:22:03.513Z,1007.93
2019-05-17T04:23:03.901Z,1007.95
2019-05-17T04:24:03.194Z,1007.99
2019-05-17T04:25:03.051Z,1007.96
2019-05-17T04:26:03.829Z,1007.95
2019-05-17T04:27:03.660Z,1007.89
2019-05-17T04:28:02.797Z,1007.93
2019-05-17T04:29:03.599Z,1007.91
2019-05-17T04:30:03.664Z,1007.90
2019-05-17T04:31:02.870Z,1007.89
2019-05-17T04:32:03.938Z,1007.89
2019-05-17T04:33:03.567Z,1007.90
2019-05-17T04:34:03.069Z,1007.94
2019-05-17T04:35:03.730Z,1007.87
2019-05-17T04:36:02.594Z,1007.94
2019-05-17T04:37:03.978Z,1007.89
2019-05-17T04:38:04.294Z,1007.88
2019-05-17T04:39:02.437Z,1007.86
2019-05-17T04:40:03.517Z,1007.86
2019-05-17T04:41:03.366Z,1007.85
2019-05-17T04:42:03.771Z,1007.83
2019-05-17T04:43:03.298Z,1007.89
2019-05-17T04:44:02.779Z,1007.82
2019-05-17T04:45:03.619Z,1007.78
2019-05-17T04:46:02.748Z,1007.73
2019-05-17T04:47:03.207Z,1007.76
2019-05-17T04:48:03.640Z,1007.77
2019-05-17T04:49:02.973Z,1007.80
2019-05-17T04:50:04.052Z,1007.81
2019-05-17T04:51:02.500Z,1007.79
2019-05-17T04:52:03.581Z,1007.76
2019-05-17T04:53:02.700Z,1007.77
2019-05-17T04:54:03.285Z,1007.71
2019-05-17T04:55:03.652Z,1007.80
2019-05-17T04:56:03.107Z,1007.70
2019-05-17T04:57:02.698Z,1007.74
2019-05-17T04:58:03.861Z,1007.70
2019-05-17T04:59:03.263Z,1007.67
2019-05-17T05:00:03.856Z,1007.68
2019-05-17T05:01:03.616Z,1007.73
2019-05-17T05:02:03.031Z,1007.75
2019-05-17T05:03:03.474Z,1007.76
2019-05-17T05:04:03.491Z,1007.70
2019-05-17T05:05:03.308Z,1007.77
2019-05-17T05:06:02.972Z,1007.71
2019-05-17T05:07:03.220Z,1007.74
2019-05-17T05:08:03.139Z,1007.73
2019-05-17T05:09:02.529Z,1007.76
2019-05-17T05:10:03.020Z,1007.72
2019-05-17T05:11:03.222Z,1007.74
2019-05-17T05:12:05.393Z,1007.67
2019-05-17T05:13:03.077Z,1007.76
2019-05-17T05:14:02.869Z,1007.71
2019-05-17T05:15:03.244Z,1007.71
2019-05-17T05:16:02.838Z,1007.65
2019-05-17T05:17:02.588Z,1007.74
2019-05-17T05:18:02.363Z,1007.70
2019-05-17T05:19:02.979Z,1007.70
2019-05-17T05:20:02.786Z,1007.68
2019-05-17T05:21:03.198Z,1007.69
2019-05-17T05:22:04.355Z,1007.67
2019-05-17T05:23:02.548Z,1007.68
2019-05-17T05:24:02.424Z,1007.66
2019-05-17T05:25:02.187Z,1007.71
2019-05-17T05:26:02.804Z,1007.74
2019-05-17T05:27:02.515Z,1007.79
2019-05-17T05:28:02.299Z,1007.76
2019-05-17T05:29:02.096Z,1007.75
2019-05-17T05:30:02.869Z,1007.71
2019-05-17T05:31:01.988Z,1007.76
2019-05-17T05:32:02.462Z,1007.71
2019-05-17T05:33:02.018Z,1007.65
2019-05-17T05:34:01.904Z,1007.68
2019-05-17T05:35:02.894Z,1007.64
2019-05-17T05:36:02.240Z,1007.61
2019-05-17T05:37:02.139Z,1007.64
2019-05-17T05:38:02.196Z,1007.64
2019-05-17T05:39:02.205Z,1007.63
2019-05-17T05:40:02.049Z,1007.60
2019-05-17T05:41:01.859Z,1007.60
2019-05-17T05:42:08.103Z,1007.60
2019-05-17T05:43:02.370Z,1007.58
2019-05-17T05:44:01.906Z,1007.61
2019-05-17T05:45:00.089Z,1007.54
2019-05-17T05:46:02.317Z,1007.60
2019-05-17T05:47:02.186Z,1007.57
2019-05-17T05:48:01.848Z,1007.57
2019-05-17T05:49:01.850Z,1007.56
2019-05-17T05:50:01.834Z,1007.54
2019-05-17T05:51:02.859Z,1007.50
2019-05-17T05:52:02.022Z,1007.60
2019-05-17T05:53:01.964Z,1007.57
2019-05-17T05:54:01.660Z,1007.55
2019-05-17T05:55:01.473Z,1007.54
2019-05-17T05:56:02.911Z,1007.52
2019-05-17T05:57:02.336Z,1007.55
2019-05-17T05:57:59.954Z,1007.53
2019-05-17T05:58:59.944Z,1007.57
2019-05-17T06:00:02.236Z,1007.63
2019-05-17T06:01:02.349Z,1007.58
2019-05-17T06:02:01.758Z,1007.58
2019-05-17T06:02:59.890Z,1007.54
2019-05-17T06:03:59.873Z,1007.53
2019-05-17T06:05:02.026Z,1007.55
2019-05-17T06:06:01.830Z,1007.59
2019-05-17T06:06:59.854Z,1007.53
2019-05-17T06:07:59.833Z,1007.57
2019-05-17T06:08:59.830Z,1007.56
2019-05-17T06:10:02.041Z,1007.61
2019-05-17T06:11:01.916Z,1007.54
2019-05-17T06:12:02.245Z,1007.61
2019-05-17T06:13:02.613Z,1007.60
2019-05-17T06:14:01.632Z,1007.55
2019-05-17T06:14:59.770Z,1007.52
2019-05-17T06:15:59.741Z,1007.56
2019-05-17T06:17:02.337Z,1007.52
2019-05-17T06:17:59.727Z,1007.49
2019-05-17T06:18:59.710Z,1007.56
2019-05-17T06:19:59.698Z,1007.56
2019-05-17T06:20:59.747Z,1007.53
2019-05-17T06:21:59.686Z,1007.54
2019-05-17T06:22:59.666Z,1007.54
2019-05-17T06:23:59.647Z,1007.49
2019-05-17T06:24:59.639Z,1007.55
2019-05-17T06:26:03.332Z,1007.46
2019-05-17T06:27:01.691Z,1007.52
2019-05-17T06:28:01.590Z,1007.54
2019-05-17T06:28:59.597Z,1007.51
2019-05-17T06:30:01.542Z,1007.49
2019-05-17T06:30:59.572Z,1007.53
2019-05-17T06:31:59.558Z,1007.49
2019-05-17T06:32:59.542Z,1007.50
2019-05-17T06:34:01.806Z,1007.45
2019-05-17T06:35:01.673Z,1007.39
2019-05-17T06:36:02.408Z,1007.45
2019-05-17T06:37:02.052Z,1007.40
2019-05-17T06:38:01.774Z,1007.46
2019-05-17T06:38:59.479Z,1007.43
2019-05-17T06:40:02.092Z,1007.41
2019-05-17T06:41:01.462Z,1007.43
2019-05-17T06:41:59.454Z,1007.38
2019-05-17T06:42:59.475Z,1007.48
2019-05-17T06:43:59.422Z,1007.46
2019-05-17T06:45:01.952Z,1007.40
2019-05-17T06:46:01.570Z,1007.41
2019-05-17T06:46:59.392Z,1007.39
2019-05-17T06:47:59.485Z,1007.38
2019-05-17T06:48:59.362Z,1007.34
2019-05-17T06:49:59.358Z,1007.37
2019-05-17T06:50:59.360Z,1007.36
2019-05-17T06:51:59.329Z,1007.37
2019-05-17T06:52:59.339Z,1007.36
2019-05-17T06:54:01.620Z,1007.41
2019-05-17T06:54:59.298Z,1007.42
2019-05-17T06:55:59.284Z,1007.44
2019-05-17T06:56:59.274Z,1007.35
2019-05-17T06:58:01.532Z,1007.40
2019-05-17T06:58:59.256Z,1007.37
2019-05-17T07:00:00.149Z,1007.40
2019-05-17T07:00:59.951Z,1007.40
2019-05-17T07:01:59.748Z,1007.40
2019-05-17T07:03:00.668Z,1007.36
2019-05-17T07:04:00.296Z,1007.41
2019-05-17T07:05:01.326Z,1007.40
2019-05-17T07:05:59.610Z,1007.39
2019-05-17T07:07:00.090Z,1007.34
2019-05-17T07:08:00.263Z,1007.42
2019-05-17T07:09:00.973Z,1007.40
2019-05-17T07:10:00.531Z,1007.37
2019-05-17T07:10:59.801Z,1007.41
2019-05-17T07:11:59.627Z,1007.36
2019-05-17T07:13:01.878Z,1007.30
2019-05-17T07:13:59.772Z,1007.35
2019-05-17T07:15:01.467Z,1007.31
2019-05-17T07:15:59.759Z,1007.32
2019-05-17T07:16:59.617Z,1007.38
2019-05-17T07:17:59.980Z,1007.37
2019-05-17T07:18:59.730Z,1007.34
2019-05-17T07:19:59.719Z,1007.43
2019-05-17T07:21:02.866Z,1007.41
2019-05-17T07:22:00.018Z,1007.39
2019-05-17T07:23:00.423Z,1007.41
2019-05-17T07:23:59.484Z,1007.42
2019-05-17T07:24:59.782Z,1007.36
2019-05-17T07:25:59.599Z,1007.39
2019-05-17T07:26:59.245Z,1007.31
2019-05-17T07:28:00.482Z,1007.32
2019-05-17T07:28:59.329Z,1007.27
2019-05-17T07:29:59.310Z,1007.30
2019-05-17T07:30:59.617Z,1007.32
2019-05-17T07:32:00.367Z,1007.29
2019-05-17T07:33:00.354Z,1007.27
2019-05-17T07:33:59.866Z,1007.25
2019-05-17T07:35:00.086Z,1007.20
2019-05-17T07:35:59.551Z,1007.29
2019-05-17T07:36:59.757Z,1007.28
2019-05-17T07:37:59.558Z,1007.26
2019-05-17T07:39:00.801Z,1007.24
2019-05-17T07:40:04.703Z,1007.21
2019-05-17T07:40:59.839Z,1007.16
2019-05-17T07:41:59.980Z,1007.13
2019-05-17T07:43:09.825Z,1007.14
2019-05-17T07:44:00.402Z,1007.17
2019-05-17T07:45:00.560Z,1007.16
2019-05-17T07:46:00.491Z,1007.16
2019-05-17T07:47:00.166Z,1007.11
2019-05-17T07:48:00.158Z,1007.12
2019-05-17T07:49:00.381Z,1007.17
2019-05-17T07:50:01.049Z,1007.08
2019-05-17T07:50:59.410Z,1007.08
2019-05-17T07:52:00.582Z,1007.14
2019-05-17T07:53:00.652Z,1007.05
2019-05-17T07:53:59.714Z,1007.14
2019-05-17T07:55:02.501Z,1007.06
2019-05-17T07:55:59.622Z,1007.03
2019-05-17T07:57:00.271Z,1007.06
2019-05-17T07:58:00.225Z,1007.01
2019-05-17T07:59:00.010Z,1006.99
2019-05-17T07:59:59.983Z,1006.95
2019-05-17T08:00:58.538Z,1006.96
2019-05-17T08:01:59.731Z,1007.03
2019-05-17T08:02:59.915Z,1006.95
2019-05-17T08:04:00.699Z,1006.91
2019-05-17T08:05:00.430Z,1006.97
2019-05-17T08:05:59.952Z,1006.94
2019-05-17T08:06:59.825Z,1006.94
2019-05-17T08:08:00.098Z,1006.93
2019-05-17T08:09:01.281Z,1006.86
2019-05-17T08:10:00.189Z,1006.89
2019-05-17T08:11:00.364Z,1006.86
2019-05-17T08:11:59.719Z,1006.90
2019-05-17T08:12:59.922Z,1006.87
2019-05-17T08:13:59.761Z,1006.70
2019-05-17T08:14:59.842Z,1006.70
2019-05-17T08:15:59.491Z,1006.69
2019-05-17T08:16:59.871Z,1006.70
2019-05-17T08:17:59.376Z,1006.69
2019-05-17T08:19:00.317Z,1006.62
2019-05-17T08:20:00.672Z,1006.60
2019-05-17T08:20:59.683Z,1006.57
2019-05-17T08:21:59.704Z,1006.55
2019-05-17T08:22:59.533Z,1006.50
2019-05-17T08:24:00.053Z,1006.49
2019-05-17T08:25:00.046Z,1006.50
2019-05-17T08:26:00.447Z,1006.43
2019-05-17T08:26:59.932Z,1006.49
2019-05-17T08:27:59.511Z,1006.49
2019-05-17T08:29:00.350Z,1006.46
2019-05-17T08:29:59.727Z,1006.43
2019-05-17T08:31:00.904Z,1006.38
2019-05-17T08:32:00.239Z,1006.42
2019-05-17T08:33:00.758Z,1006.36
2019-05-17T08:34:00.057Z,1006.42
2019-05-17T08:35:00.325Z,1006.37
2019-05-17T08:35:59.750Z,1006.36
2019-05-17T08:36:58.268Z,1006.44
2019-05-17T08:38:00.462Z,1006.37
2019-05-17T08:38:59.662Z,1006.35
2019-05-17T08:40:00.061Z,1006.39
2019-05-17T08:41:00.652Z,1006.37
2019-05-17T08:42:01.197Z,1006.35
2019-05-17T08:43:00.132Z,1006.39
2019-05-17T08:44:00.477Z,1006.40
2019-05-17T08:45:00.161Z,1006.41
2019-05-17T08:45:59.330Z,1006.41
2019-05-17T08:46:59.501Z,1006.46
2019-05-17T08:48:00.187Z,1006.51
2019-05-17T08:49:00.116Z,1006.61
2019-05-17T08:50:00.223Z,1006.57
2019-05-17T08:51:00.079Z,1006.58
2019-05-17T08:51:59.440Z,1006.52
2019-05-17T08:52:59.905Z,1006.51
2019-05-17T08:54:00.020Z,1006.51
2019-05-17T08:55:00.141Z,1006.49
2019-05-17T08:55:57.929Z,1006.46
2019-05-17T08:57:00.497Z,1006.43
2019-05-17T08:58:00.839Z,1006.42
2019-05-17T08:58:57.890Z,1006.40
2019-05-17T09:00:00.497Z,1006.43
2019-05-17T09:01:00.054Z,1006.37
2019-05-17T09:02:00.026Z,1006.46
2019-05-17T09:02:59.936Z,1006.44
2019-05-17T09:03:59.892Z,1006.47
2019-05-17T09:05:00.267Z,1006.45
2019-05-17T09:06:01.529Z,1006.45
2019-05-17T09:06:59.719Z,1006.44
2019-05-17T09:07:59.965Z,1006.41
2019-05-17T09:08:57.776Z,1006.37
2019-05-17T09:09:57.767Z,1006.43
2019-05-17T09:11:00.095Z,1006.37
2019-05-17T09:11:59.598Z,1006.39
2019-05-17T09:12:59.764Z,1006.42
2019-05-17T09:14:01.621Z,1006.42
2019-05-17T09:14:57.705Z,1006.42
2019-05-17T09:16:00.033Z,1006.36
2019-05-17T09:17:00.247Z,1006.37
2019-05-17T09:18:00.131Z,1006.37
2019-05-17T09:18:57.659Z,1006.29
2019-05-17T09:19:57.663Z,1006.35
2019-05-17T09:21:00.078Z,1006.34
2019-05-17T09:21:59.697Z,1006.34
2019-05-17T09:22:59.929Z,1006.35
2019-05-17T09:23:59.600Z,1006.35
2019-05-17T09:24:59.598Z,1006.29
2019-05-17T09:25:59.504Z,1006.26
2019-05-17T09:26:59.731Z,1006.31
2019-05-17T09:27:57.555Z,1006.27
2019-05-17T09:28:57.554Z,1006.28
2019-05-17T09:29:59.883Z,1006.22
2019-05-17T09:30:59.694Z,1006.34
2019-05-17T09:31:59.809Z,1006.27
2019-05-17T09:33:00.112Z,1006.27
2019-05-17T09:33:57.519Z,1006.23
2019-05-17T09:34:57.483Z,1006.32
2019-05-17T09:35:57.466Z,1006.30
2019-05-17T09:36:57.451Z,1006.26
2019-05-17T09:37:57.450Z,1006.32
2019-05-17T09:38:57.428Z,1006.26
2019-05-17T09:39:59.687Z,1006.26
2019-05-17T09:40:59.723Z,1006.25
2019-05-17T09:41:59.471Z,1006.23
2019-05-17T09:42:57.386Z,1006.20
2019-05-17T09:44:09.653Z,1006.16
2019-05-17T09:45:00.403Z,1006.12
2019-05-17T09:45:57.356Z,1006.21
2019-05-17T09:46:59.439Z,1006.22
2019-05-17T09:47:57.326Z,1006.19
2019-05-17T09:48:57.332Z,1006.22
2019-05-17T09:49:57.312Z,1006.21
2019-05-17T09:50:59.728Z,1006.28
2019-05-17T09:51:57.283Z,1006.21
2019-05-17T09:52:57.283Z,1006.19
2019-05-17T09:53:57.260Z,1006.17
2019-05-17T09:54:57.269Z,1006.25
2019-05-17T09:55:57.239Z,1006.16
2019-05-17T09:56:57.230Z,1006.14
2019-05-17T09:57:57.213Z,1006.10
2019-05-17T09:58:57.203Z,1006.12
2019-05-17T09:59:57.200Z,1006.10
2019-05-17T10:00:57.181Z,1006.10
2019-05-17T10:01:57.180Z,1006.09
2019-05-17T10:02:57.158Z,1006.10
2019-05-17T10:03:57.150Z,1006.03
2019-05-17T10:04:57.136Z,1006.00
2019-05-17T10:05:57.139Z,1006.03
2019-05-17T10:06:59.266Z,1006.05
2019-05-17T10:07:57.123Z,1006.01
2019-05-17T10:08:57.092Z,1005.97
2019-05-17T10:09:59.552Z,1005.94
2019-05-17T10:11:05.923Z,1005.98
2019-05-17T10:11:59.959Z,1005.92
2019-05-17T10:12:57.089Z,1006.00
2019-05-17T10:14:00.580Z,1005.91
2019-05-17T10:14:57.021Z,1005.92
2019-05-17T10:15:57.010Z,1005.91
2019-05-17T10:16:57.003Z,1005.88
2019-05-17T10:17:57.054Z,1005.86
2019-05-17T10:18:57.063Z,1005.91
2019-05-17T10:19:56.965Z,1005.86
2019-05-17T10:20:56.954Z,1005.85
2019-05-17T10:21:56.946Z,1005.86
2019-05-17T10:22:59.428Z,1005.85
2019-05-17T10:23:56.945Z,1005.91
2019-05-17T10:24:56.934Z,1005.89
2019-05-17T10:25:56.902Z,1005.92
2019-05-17T10:26:56.905Z,1005.90
2019-05-17T10:27:56.889Z,1005.97
2019-05-17T10:28:59.281Z,1005.86
2019-05-17T10:29:56.851Z,1005.81
2019-05-17T10:30:56.853Z,1005.90
2019-05-17T10:31:56.830Z,1005.90
2019-05-17T10:32:56.817Z,1005.84
2019-05-17T10:33:58.902Z,1005.87
2019-05-17T10:34:56.799Z,1005.94
2019-05-17T10:35:56.801Z,1005.91
2019-05-17T10:36:56.771Z,1005.88
2019-05-17T10:37:59.347Z,1005.91
2019-05-17T10:38:58.896Z,1005.89
2019-05-17T10:39:56.748Z,1005.89
2019-05-17T10:40:56.742Z,1005.92
2019-05-17T10:41:56.743Z,1005.89
2019-05-17T10:42:56.705Z,1005.87
2019-05-17T10:43:56.691Z,1005.89
2019-05-17T10:44:56.702Z,1005.90
2019-05-17T10:45:56.675Z,1005.91
2019-05-17T10:46:56.662Z,1005.91
2019-05-17T10:47:56.650Z,1005.92
2019-05-17T10:48:56.639Z,1005.88
2019-05-17T10:49:56.632Z,1005.92
2019-05-17T10:50:56.615Z,1005.94
2019-05-17T10:51:56.610Z,1005.94
2019-05-17T10:52:56.604Z,1005.97
2019-05-17T10:53:56.586Z,1005.96
2019-05-17T10:54:56.573Z,1005.95
2019-05-17T10:55:56.558Z,1005.98
2019-05-17T10:56:56.545Z,1005.97
2019-05-17T10:57:56.536Z,1006.03
2019-05-17T10:58:56.525Z,1006.01
2019-05-17T10:59:56.513Z,1005.98
2019-05-17T11:00:56.503Z,1005.99
2019-05-17T11:01:56.527Z,1005.97
2019-05-17T11:02:56.488Z,1005.96
2019-05-17T11:03:56.483Z,1005.98
2019-05-17T11:04:56.454Z,1005.93
2019-05-17T11:05:56.452Z,1005.99
2019-05-17T11:06:56.436Z,1006.09
2019-05-17T11:07:56.423Z,1006.00
2019-05-17T11:08:56.416Z,1006.02
2019-05-17T11:09:56.427Z,1005.96
2019-05-17T11:10:56.436Z,1005.99
2019-05-17T11:11:56.386Z,1005.98
2019-05-17T11:12:56.369Z,1005.98
2019-05-17T11:13:56.359Z,1006.00
2019-05-17T11:15:10.235Z,1005.92
2019-05-17T11:15:57.336Z,1005.93
2019-05-17T11:16:56.324Z,1005.95
2019-05-17T11:17:56.310Z,1005.97
2019-05-17T11:18:56.308Z,1005.94
2019-05-17T11:19:56.292Z,1005.91
2019-05-17T11:20:56.298Z,1005.94
2019-05-17T11:21:56.270Z,1005.94
2019-05-17T11:22:56.265Z,1005.95
2019-05-17T11:23:56.266Z,1005.96
2019-05-17T11:24:56.231Z,1005.91
2019-05-17T11:25:56.240Z,1005.95
2019-05-17T11:26:56.208Z,1005.89
2019-05-17T11:27:56.198Z,1005.91
2019-05-17T11:28:56.191Z,1005.93
2019-05-17T11:29:56.175Z,1005.96
2019-05-17T11:30:56.169Z,1005.92
2019-05-17T11:31:56.193Z,1005.91
2019-05-17T11:32:56.144Z,1005.91
2019-05-17T11:33:56.136Z,1005.99
2019-05-17T11:34:56.141Z,1005.94
2019-05-17T11:35:56.112Z,1005.94
2019-05-17T11:36:56.117Z,1005.96
2019-05-17T11:37:56.106Z,1005.91
2019-05-17T11:38:56.076Z,1005.94
2019-05-17T11:39:56.067Z,1005.94
2019-05-17T11:40:56.151Z,1005.96
2019-05-17T11:41:56.049Z,1005.97
2019-05-17T11:42:56.045Z,1005.95
2019-05-17T11:43:56.036Z,1005.89
2019-05-17T11:44:56.019Z,1005.94
2019-05-17T11:45:56.003Z,1005.96
2019-05-17T11:46:55.995Z,1005.95
2019-05-17T11:47:56.091Z,1005.92
2019-05-17T11:48:55.987Z,1005.89
2019-05-17T11:49:55.956Z,1005.98
2019-05-17T11:50:55.946Z,1005.90
2019-05-17T11:51:55.934Z,1005.93
2019-05-17T11:52:55.921Z,1005.90
2019-05-17T11:53:55.920Z,1005.92
2019-05-17T11:54:55.919Z,1005.91
2019-05-17T11:55:55.893Z,1005.86
2019-05-17T11:56:55.880Z,1005.90
2019-05-17T11:57:55.865Z,1005.86
2019-05-17T11:58:55.854Z,1005.83
2019-05-17T11:59:55.853Z,1005.87
2019-05-17T12:00:55.833Z,1005.89
2019-05-17T12:01:55.836Z,1005.87
2019-05-17T12:02:55.812Z,1005.92
2019-05-17T12:03:55.803Z,1005.82
2019-05-17T12:04:55.798Z,1005.87